createdAt,value
2017-11-24T00:00:18.408Z,9.14
2017-11-24T00:01:21.169Z,9.14
2017-11-24T00:02:23.787Z,9.14
2017-11-24T00:03:26.476Z,9.12
2017-11-24T00:04:29.006Z,9.12
2017-11-24T00:05:31.537Z,9.12
2017-11-24T00:06:34.106Z,9.13
2017-11-24T00:07:36.636Z,9.13
2017-11-24T00:08:39.199Z,9.12
2017-11-24T00:09:41.815Z,9.12
2017-11-24T00:10:44.490Z,9.11
2017-11-24T00:11:47.490Z,9.11
2017-11-24T00:12:50.129Z,9.12
2017-11-24T00:13:52.849Z,9.11
2017-11-24T00:14:55.491Z,9.09
2017-11-24T00:15:58.141Z,9.08
2017-11-24T00:17:00.894Z,9.08
2017-11-24T00:18:04.004Z,9.08
2017-11-24T00:19:06.864Z,9.08
2017-11-24T00:20:09.511Z,9.09
2017-11-24T00:21:12.276Z,9.08
2017-11-24T00:22:14.933Z,9.08
2017-11-24T00:23:17.762Z,9.08
2017-11-24T00:24:20.663Z,9.08
2017-11-24T00:25:23.418Z,9.09
2017-11-24T00:26:26.129Z,9.08
2017-11-24T00:27:28.932Z,9.07
2017-11-24T00:28:31.627Z,9.08
2017-11-24T00:29:34.335Z,9.07
2017-11-24T00:30:37.358Z,9.09
2017-11-24T00:31:40.451Z,9.09
2017-11-24T00:32:43.092Z,9.08
2017-11-24T00:33:45.867Z,9.09
2017-11-24T00:34:48.497Z,9.06
2017-11-24T00:35:51.130Z,9.08
2017-11-24T00:36:54.056Z,9.08
2017-11-24T00:37:56.697Z,9.09
2017-11-24T00:38:59.312Z,9.11
2017-11-24T00:40:02.052Z,9.10
2017-11-24T00:41:04.679Z,9.11
2017-11-24T00:42:07.383Z,9.12
2017-11-24T00:43:10.315Z,9.13
2017-11-24T00:44:12.964Z,9.13
2017-11-24T00:45:15.626Z,9.12
2017-11-24T00:46:18.245Z,9.09
2017-11-24T00:47:20.924Z,9.07
2017-11-24T00:48:23.555Z,9.08
2017-11-24T00:49:26.496Z,9.09
2017-11-24T00:50:29.227Z,9.09
2017-11-24T00:51:31.995Z,9.08
2017-11-24T00:52:34.694Z,9.10
2017-11-24T00:53:37.359Z,9.07
2017-11-24T00:54:40.995Z,9.06
2017-11-24T00:55:43.994Z,9.09
2017-11-24T00:56:46.692Z,9.09
2017-11-24T00:57:49.855Z,9.06
2017-11-24T00:58:52.505Z,9.04
2017-11-24T00:59:55.259Z,9.06
2017-11-24T01:00:57.899Z,9.07
2017-11-24T01:02:00.849Z,9.06
2017-11-24T01:03:03.457Z,9.05
2017-11-24T01:04:06.103Z,9.03
2017-11-24T01:05:08.726Z,9.05
2017-11-24T01:06:11.378Z,9.06
2017-11-24T01:07:14.006Z,9.09
2017-11-24T01:08:16.965Z,9.09
2017-11-24T01:09:19.596Z,9.10
2017-11-24T01:10:22.244Z,9.09
2017-11-24T01:11:24.856Z,9.09
2017-11-24T01:12:27.521Z,9.11
2017-11-24T01:13:30.116Z,9.10
2017-11-24T01:14:33.051Z,9.11
2017-11-24T01:15:35.677Z,9.12
2017-11-24T01:16:38.367Z,9.09
2017-11-24T01:17:41.003Z,9.11
2017-11-24T01:18:43.713Z,9.13
2017-11-24T01:19:46.454Z,9.16
2017-11-24T01:20:49.527Z,9.18
2017-11-24T01:21:52.138Z,9.17
2017-11-24T01:22:55.119Z,9.17
2017-11-24T01:23:57.759Z,9.17
2017-11-24T01:25:00.396Z,9.15
2017-11-24T01:26:03.027Z,9.16
2017-11-24T01:27:05.870Z,9.12
2017-11-24T01:28:08.445Z,9.10
2017-11-24T01:29:11.007Z,9.11
2017-11-24T01:30:13.537Z,9.12
2017-11-24T01:31:16.062Z,9.12
2017-11-24T01:32:18.547Z,9.15
2017-11-24T01:33:21.309Z,9.13
2017-11-24T01:34:23.953Z,9.12
2017-11-24T01:35:26.451Z,9.12
2017-11-24T01:36:28.980Z,9.11
2017-11-24T01:37:31.448Z,9.11
2017-11-24T01:38:34.086Z,9.12
2017-11-24T01:39:37.038Z,9.12
2017-11-24T01:40:39.668Z,9.16
2017-11-24T01:41:42.348Z,9.11
2017-11-24T01:42:44.956Z,9.10
2017-11-24T01:43:47.607Z,9.08
2017-11-24T01:44:50.263Z,9.10
2017-11-24T01:45:53.074Z,9.08
2017-11-24T01:46:55.616Z,9.11
2017-11-24T01:47:58.261Z,9.11
2017-11-24T01:49:00.913Z,9.09
2017-11-24T01:50:03.507Z,9.07
2017-11-24T01:51:06.096Z,9.11
2017-11-24T01:52:09.023Z,9.12
2017-11-24T01:53:11.636Z,9.12
2017-11-24T01:54:14.301Z,9.08
2017-11-24T01:55:17.043Z,9.07
2017-11-24T01:56:19.663Z,9.06
2017-11-24T01:57:22.292Z,9.06
2017-11-24T01:58:25.105Z,9.11
2017-11-24T01:59:27.677Z,9.13
2017-11-24T02:00:30.311Z,9.17
2017-11-24T02:01:32.861Z,9.19
2017-11-24T02:02:35.430Z,9.21
2017-11-24T02:03:38.000Z,9.19
2017-11-24T02:04:40.782Z,9.19
2017-11-24T02:05:43.291Z,9.20
2017-11-24T02:06:45.794Z,9.20
2017-11-24T02:07:48.249Z,9.16
2017-11-24T02:08:50.731Z,9.20
2017-11-24T02:09:53.221Z,9.23
2017-11-24T02:10:56.047Z,9.22
2017-11-24T02:11:58.525Z,9.23
2017-11-24T02:13:01.080Z,9.24
2017-11-24T02:14:03.670Z,9.25
2017-11-24T02:15:06.323Z,9.27
2017-11-24T02:16:09.086Z,9.25
2017-11-24T02:17:12.061Z,9.25
2017-11-24T02:18:14.737Z,9.24
2017-11-24T02:19:17.394Z,9.21
2017-11-24T02:20:20.053Z,9.22
2017-11-24T02:21:22.747Z,9.24
2017-11-24T02:22:25.407Z,9.33
2017-11-24T02:23:28.351Z,9.30
2017-11-24T02:24:30.972Z,9.30
2017-11-24T02:25:38.913Z,9.30
2017-11-24T02:26:41.532Z,9.31
2017-11-24T02:27:44.130Z,9.32
2017-11-24T02:28:46.741Z,9.32
2017-11-24T02:29:49.619Z,9.32
2017-11-24T02:30:52.235Z,9.37
2017-11-24T02:31:54.813Z,9.35
2017-11-24T02:32:57.431Z,9.34
2017-11-24T02:34:00.028Z,9.39
2017-11-24T02:35:02.715Z,9.42
2017-11-24T02:36:05.646Z,9.42
2017-11-24T02:37:08.241Z,9.43
2017-11-24T02:38:10.878Z,9.44
2017-11-24T02:39:13.495Z,9.44
2017-11-24T02:40:16.672Z,9.47
2017-11-24T02:41:19.570Z,9.46
2017-11-24T02:42:22.528Z,9.47
2017-11-24T02:43:25.179Z,9.49
2017-11-24T02:44:27.803Z,9.51
2017-11-24T02:45:30.425Z,9.53
2017-11-24T02:46:33.033Z,9.57
2017-11-24T02:47:35.748Z,9.61
2017-11-24T02:48:38.705Z,9.61
2017-11-24T02:49:41.315Z,9.62
2017-11-24T02:50:43.963Z,9.62
2017-11-24T02:51:46.565Z,9.67
2017-11-24T02:52:49.195Z,9.68
2017-11-24T02:53:51.825Z,9.74
2017-11-24T02:54:54.918Z,9.96
2017-11-24T02:55:57.567Z,9.88
2017-11-24T02:57:00.188Z,9.83
2017-11-24T02:58:02.812Z,9.86
2017-11-24T02:59:05.444Z,9.93
2017-11-24T03:00:08.209Z,9.96
2017-11-24T03:01:11.125Z,10.03
2017-11-24T03:02:13.759Z,10.08
2017-11-24T03:03:16.423Z,10.20
2017-11-24T03:04:19.017Z,10.22
2017-11-24T03:05:21.693Z,10.25
2017-11-24T03:06:24.328Z,10.26
2017-11-24T03:07:27.326Z,10.43
2017-11-24T03:08:29.960Z,10.47
2017-11-24T03:09:32.600Z,10.47
2017-11-24T03:10:35.214Z,10.47
2017-11-24T03:11:37.843Z,10.45
2017-11-24T03:12:40.488Z,10.48
2017-11-24T03:13:43.458Z,10.46
2017-11-24T03:14:46.081Z,10.52
2017-11-24T03:15:48.730Z,10.60
2017-11-24T03:16:51.315Z,10.61
2017-11-24T03:17:53.910Z,10.59
2017-11-24T03:18:56.610Z,10.58
2017-11-24T03:19:59.631Z,10.60
2017-11-24T03:21:02.321Z,10.57
2017-11-24T03:22:04.936Z,10.54
2017-11-24T03:23:07.582Z,10.60
2017-11-24T03:24:10.188Z,10.84
2017-11-24T03:25:12.808Z,10.89
2017-11-24T03:26:15.751Z,10.88
2017-11-24T03:27:18.407Z,10.85
2017-11-24T03:28:21.059Z,10.88
2017-11-24T03:29:23.740Z,10.93
2017-11-24T03:30:26.402Z,10.96
2017-11-24T03:31:29.084Z,10.90
2017-11-24T03:32:32.058Z,10.89
2017-11-24T03:33:34.692Z,10.92
2017-11-24T03:34:37.368Z,10.95
2017-11-24T03:35:40.050Z,10.94
2017-11-24T03:36:42.696Z,10.93
2017-11-24T03:37:45.304Z,10.94
2017-11-24T03:38:48.020Z,10.90
2017-11-24T03:39:50.636Z,10.93
2017-11-24T03:40:53.301Z,10.97
2017-11-24T03:41:55.926Z,10.94
2017-11-24T03:42:58.576Z,10.90
2017-11-24T03:44:01.512Z,10.89
2017-11-24T03:45:04.134Z,10.94
2017-11-24T03:46:06.766Z,10.95
2017-11-24T03:47:09.375Z,11.04
2017-11-24T03:48:11.998Z,11.02
2017-11-24T03:49:14.629Z,11.04
2017-11-24T03:50:17.558Z,11.02
2017-11-24T03:51:20.173Z,11.00
2017-11-24T03:52:22.785Z,11.01
2017-11-24T03:53:25.415Z,11.08
2017-11-24T03:54:28.065Z,11.09
2017-11-24T03:55:30.742Z,11.07
2017-11-24T03:56:33.717Z,11.08
2017-11-24T03:57:36.414Z,11.07
2017-11-24T03:58:39.021Z,11.14
2017-11-24T03:59:41.672Z,11.18
2017-11-24T04:00:44.254Z,11.25
2017-11-24T04:01:46.965Z,11.20
2017-11-24T04:02:49.585Z,11.18
2017-11-24T04:03:52.347Z,11.19
2017-11-24T04:04:55.027Z,11.21
2017-11-24T04:05:57.715Z,11.21
2017-11-24T04:07:00.425Z,11.20
2017-11-24T04:08:03.810Z,11.22
2017-11-24T04:09:06.609Z,11.16
2017-11-24T04:10:09.224Z,11.16
2017-11-24T04:11:11.774Z,11.16
2017-11-24T04:12:14.360Z,11.14
2017-11-24T04:13:16.919Z,11.16
2017-11-24T04:14:19.520Z,11.16
2017-11-24T04:15:22.664Z,11.14
2017-11-24T04:16:25.239Z,11.17
2017-11-24T04:17:27.830Z,11.16
2017-11-24T04:18:30.427Z,11.14
2017-11-24T04:19:33.055Z,11.12
2017-11-24T04:20:35.606Z,11.14
2017-11-24T04:21:38.602Z,11.11
2017-11-24T04:22:41.274Z,11.15
2017-11-24T04:23:43.890Z,11.15
2017-11-24T04:24:46.524Z,11.14
2017-11-24T04:25:49.196Z,11.16
2017-11-24T04:26:51.803Z,11.16
2017-11-24T04:27:54.782Z,11.17
2017-11-24T04:28:57.424Z,11.17
2017-11-24T04:30:00.094Z,11.15
2017-11-24T04:31:02.759Z,11.17
2017-11-24T04:32:05.362Z,11.18
2017-11-24T04:33:07.979Z,11.16
2017-11-24T04:34:10.944Z,11.18
2017-11-24T04:35:13.619Z,11.20
2017-11-24T04:36:16.322Z,11.21
2017-11-24T04:37:18.977Z,11.22
2017-11-24T04:38:22.592Z,11.22
2017-11-24T04:39:25.209Z,11.27
2017-11-24T04:40:27.837Z,11.29
2017-11-24T04:41:30.439Z,11.34
2017-11-24T04:42:33.143Z,11.35
2017-11-24T04:43:35.794Z,11.33
2017-11-24T04:44:38.581Z,11.37
2017-11-24T04:45:41.679Z,11.37
2017-11-24T04:46:44.394Z,11.41
2017-11-24T04:47:46.977Z,11.48
2017-11-24T04:48:49.662Z,11.51
2017-11-24T04:49:52.293Z,11.47
2017-11-24T04:50:55.196Z,11.53
2017-11-24T04:51:57.814Z,11.52
2017-11-24T04:53:00.477Z,11.51
2017-11-24T04:54:03.100Z,11.49
2017-11-24T04:55:05.754Z,11.48
2017-11-24T04:56:08.359Z,11.45
2017-11-24T04:57:11.297Z,11.51
2017-11-24T04:58:13.914Z,11.59
2017-11-24T04:59:16.645Z,11.57
2017-11-24T05:15:19.083Z,11.71
2017-11-24T05:16:21.725Z,11.66
2017-11-24T05:17:24.488Z,11.60
2017-11-24T05:18:27.089Z,11.63
2017-11-24T05:19:29.696Z,11.65
2017-11-24T05:20:32.709Z,11.63
2017-11-24T05:21:35.397Z,11.75
2017-11-24T05:22:38.009Z,11.68
2017-11-24T05:23:40.618Z,11.63
2017-11-24T05:24:43.314Z,11.63
2017-11-24T05:25:45.945Z,11.63
2017-11-24T05:26:48.874Z,11.66
2017-11-24T05:27:51.537Z,11.63
2017-11-24T05:28:54.168Z,11.62
2017-11-24T05:29:56.832Z,11.67
2017-11-24T05:30:59.457Z,11.73
2017-11-24T05:32:02.133Z,11.73
2017-11-24T05:33:05.132Z,11.84
2017-11-24T05:34:07.778Z,11.77
2017-11-24T05:35:10.459Z,11.65
2017-11-24T05:36:13.488Z,11.63
2017-11-24T05:37:16.209Z,11.63
2017-11-24T05:38:18.899Z,11.57
2017-11-24T05:39:21.866Z,11.61
2017-11-24T05:40:24.535Z,11.55
2017-11-24T05:41:27.189Z,11.52
2017-11-24T05:42:29.881Z,11.60
2017-11-24T05:43:32.552Z,11.66
2017-11-24T05:44:35.169Z,11.63
2017-11-24T05:45:38.258Z,11.61
2017-11-24T05:46:40.981Z,11.58
2017-11-24T05:47:43.715Z,11.54
2017-11-24T05:48:46.315Z,11.45
2017-11-24T05:49:49.023Z,11.41
2017-11-24T05:50:51.671Z,11.39
2017-11-24T05:51:54.665Z,11.42
2017-11-24T05:52:57.337Z,11.40
2017-11-24T05:54:00.140Z,11.37
2017-11-24T05:55:02.867Z,11.37
2017-11-24T05:56:05.596Z,11.46
2017-11-24T05:57:08.317Z,11.55
2017-11-24T05:58:11.333Z,11.49
2017-11-24T05:59:13.925Z,11.49
2017-11-24T06:00:17.138Z,11.56
2017-11-24T06:01:19.902Z,11.58
2017-11-24T06:02:22.510Z,11.57
2017-11-24T06:03:25.185Z,11.56
2017-11-24T06:04:28.124Z,11.56
2017-11-24T06:05:30.730Z,11.57
2017-11-24T06:06:33.416Z,11.67
2017-11-24T06:07:36.054Z,11.70
2017-11-24T06:08:38.879Z,11.68
2017-11-24T06:09:41.508Z,11.64
2017-11-24T06:10:44.451Z,11.69
2017-11-24T06:11:49.855Z,11.77
2017-11-24T06:12:52.732Z,11.70
2017-11-24T06:13:55.629Z,11.67
2017-11-24T06:14:58.310Z,11.64
2017-11-24T06:16:01.072Z,11.61
2017-11-24T06:17:05.292Z,11.70
2017-11-24T06:18:08.045Z,11.68
2017-11-24T06:19:10.683Z,11.69
2017-11-24T06:20:13.355Z,11.70
2017-11-24T06:21:16.077Z,11.71
2017-11-24T06:22:18.746Z,11.68
2017-11-24T06:23:21.686Z,11.65
2017-11-24T06:24:24.466Z,11.63
2017-11-24T06:25:27.109Z,11.75
2017-11-24T06:26:29.884Z,11.76
2017-11-24T06:27:32.663Z,11.78
2017-11-24T06:28:35.347Z,11.85
2017-11-24T06:29:38.324Z,11.91
2017-11-24T06:30:41.084Z,11.87
2017-11-24T06:31:43.774Z,11.81
2017-11-24T06:32:46.504Z,11.79
2017-11-24T06:33:49.213Z,11.77
2017-11-24T06:34:51.897Z,11.66
2017-11-24T06:35:54.783Z,11.55
2017-11-24T06:36:57.469Z,11.55
2017-11-24T06:38:00.127Z,11.54
2017-11-24T06:39:02.902Z,11.63
2017-11-24T06:40:05.596Z,11.67
2017-11-24T06:41:08.340Z,11.71
2017-11-24T06:42:11.361Z,11.78
2017-11-24T06:43:14.031Z,11.72
2017-11-24T06:44:16.708Z,11.68
2017-11-24T06:45:19.598Z,11.70
2017-11-24T06:46:22.715Z,11.68
2017-11-24T06:47:25.506Z,11.73
2017-11-24T06:48:28.600Z,11.77
2017-11-24T06:49:31.289Z,11.77
2017-11-24T06:50:33.984Z,11.74
2017-11-24T06:51:36.597Z,11.84
2017-11-24T06:52:39.294Z,11.80
2017-11-24T06:53:42.048Z,11.76
2017-11-24T06:54:45.198Z,11.79
2017-11-24T06:55:47.957Z,11.82
2017-11-24T06:56:50.661Z,11.82
2017-11-24T06:57:53.307Z,11.83
2017-11-24T06:58:56.039Z,11.88
2017-11-24T06:59:58.787Z,11.96
2017-11-24T07:01:01.580Z,11.93
2017-11-24T07:02:04.216Z,11.89
2017-11-24T07:03:06.871Z,11.85
2017-11-24T07:04:09.722Z,11.86
2017-11-24T07:05:12.419Z,11.88
2017-11-24T07:06:15.364Z,11.89
2017-11-24T07:07:18.128Z,11.82
2017-11-24T07:08:20.752Z,11.93
2017-11-24T07:09:23.519Z,11.94
2017-11-24T07:10:26.160Z,11.89
2017-11-24T07:11:28.831Z,11.89
2017-11-24T07:12:31.825Z,11.93
2017-11-24T07:13:34.569Z,11.94
2017-11-24T07:14:37.222Z,11.98
2017-11-24T07:15:39.957Z,11.96
2017-11-24T07:16:42.714Z,11.93
2017-11-24T07:17:45.489Z,11.91
2017-11-24T07:18:48.524Z,11.95
2017-11-24T07:19:51.265Z,11.96
2017-11-24T07:20:53.954Z,11.99
2017-11-24T07:21:56.648Z,11.96
2017-11-24T07:22:59.336Z,12.00
2017-11-24T07:24:02.016Z,12.04
2017-11-24T07:25:05.790Z,12.03
2017-11-24T07:26:08.890Z,12.08
2017-11-24T07:27:11.595Z,12.07
2017-11-24T07:28:14.264Z,12.05
2017-11-24T07:29:17.885Z,12.07
2017-11-24T07:30:20.510Z,12.02
2017-11-24T07:31:23.563Z,12.00
2017-11-24T07:32:26.330Z,11.96
2017-11-24T07:33:29.008Z,11.96
2017-11-24T07:34:31.642Z,11.97
2017-11-24T07:35:34.367Z,11.97
2017-11-24T07:36:37.084Z,12.07
2017-11-24T07:37:40.115Z,12.00
2017-11-24T07:38:42.923Z,11.96
2017-11-24T07:39:45.686Z,11.95
2017-11-24T07:40:48.368Z,11.94
2017-11-24T07:41:51.027Z,11.89
2017-11-24T07:42:53.654Z,11.88
2017-11-24T07:43:56.837Z,11.89
2017-11-24T07:44:59.466Z,11.84
2017-11-24T07:46:02.152Z,11.82
2017-11-24T07:47:04.841Z,11.84
2017-11-24T07:48:07.450Z,11.84
2017-11-24T07:49:10.068Z,11.86
2017-11-24T07:50:12.975Z,11.78
2017-11-24T07:51:15.675Z,11.83
2017-11-24T07:52:18.317Z,11.83
2017-11-24T07:53:20.909Z,11.78
2017-11-24T07:54:23.531Z,11.74
2017-11-24T07:55:26.177Z,11.73
2017-11-24T07:56:29.528Z,11.77
2017-11-24T07:57:32.242Z,11.76
2017-11-24T07:58:34.846Z,11.76
2017-11-24T07:59:37.386Z,11.82
2017-11-24T08:00:40.089Z,11.78
2017-11-24T08:01:42.737Z,11.76
2017-11-24T08:02:45.691Z,11.77
2017-11-24T08:03:49.166Z,11.74
2017-11-24T08:04:51.912Z,11.77
2017-11-24T08:05:54.616Z,11.74
2017-11-24T08:06:57.284Z,11.78
2017-11-24T08:07:59.920Z,11.77
2017-11-24T08:09:02.946Z,11.83
2017-11-24T08:10:05.600Z,11.84
2017-11-24T08:11:08.276Z,11.86
2017-11-24T08:12:10.932Z,11.86
2017-11-24T08:13:13.665Z,11.87
2017-11-24T08:14:16.342Z,11.86
2017-11-24T08:15:19.292Z,11.86
2017-11-24T08:16:21.914Z,11.86
2017-11-24T08:17:24.542Z,11.86
2017-11-24T08:18:27.143Z,11.82
2017-11-24T08:19:29.794Z,11.82
2017-11-24T08:20:32.324Z,11.86
2017-11-24T08:21:35.198Z,11.89
2017-11-24T08:22:37.754Z,11.87
2017-11-24T08:23:40.460Z,11.84
2017-11-24T08:24:43.154Z,11.83
2017-11-24T08:25:45.908Z,11.78
2017-11-24T08:26:48.565Z,11.80
2017-11-24T08:27:51.461Z,11.80
2017-11-24T08:28:54.089Z,11.78
2017-11-24T08:29:56.754Z,11.76
2017-11-24T08:30:59.473Z,11.76
2017-11-24T08:32:02.165Z,11.79
2017-11-24T08:33:04.780Z,11.81
2017-11-24T08:34:08.206Z,11.80
2017-11-24T08:35:10.833Z,11.79
2017-11-24T08:36:13.691Z,11.79
2017-11-24T08:37:16.374Z,11.82
2017-11-24T08:38:19.021Z,11.85
2017-11-24T08:39:21.622Z,11.83
2017-11-24T08:40:24.682Z,11.86
2017-11-24T08:41:28.287Z,11.84
2017-11-24T08:42:30.933Z,11.82
2017-11-24T08:44:35.914Z,11.84
2017-11-24T08:45:38.610Z,11.90
2017-11-24T08:46:45.608Z,11.87
2017-11-24T08:47:52.234Z,11.87
2017-11-24T08:49:57.332Z,11.83
2017-11-24T08:50:59.878Z,11.83
2017-11-24T08:52:02.536Z,11.81
2017-11-24T08:53:05.402Z,11.82
2017-11-24T08:54:07.873Z,11.78
2017-11-24T08:55:10.504Z,11.77
2017-11-24T08:56:13.049Z,11.77
2017-11-24T08:57:15.654Z,11.75
2017-11-24T08:58:18.235Z,11.70
2017-11-24T08:59:21.171Z,11.72
2017-11-24T09:00:23.795Z,11.71
2017-11-24T09:01:26.425Z,11.74
2017-11-24T09:02:29.060Z,11.71
2017-11-24T09:03:31.658Z,11.73
2017-11-24T09:04:34.251Z,11.75
2017-11-24T09:05:37.225Z,11.72
2017-11-24T09:06:39.839Z,11.71
2017-11-24T09:07:42.606Z,11.71
2017-11-24T09:08:45.265Z,11.71
2017-11-24T09:09:48.763Z,11.71
2017-11-24T09:10:51.711Z,11.73
2017-11-24T09:11:54.757Z,11.68
2017-11-24T09:12:57.395Z,11.70
2017-11-24T09:14:00.114Z,11.69
2017-11-24T09:15:03.448Z,11.70
2017-11-24T09:16:06.131Z,11.71
2017-11-24T09:17:08.866Z,11.73
2017-11-24T09:18:11.945Z,11.68
2017-11-24T09:19:14.687Z,11.74
2017-11-24T09:20:17.335Z,11.74
2017-11-24T09:21:20.032Z,11.66
2017-11-24T09:22:22.712Z,11.67
2017-11-24T09:23:25.425Z,11.68
2017-11-24T09:24:28.092Z,11.62
2017-11-24T09:25:30.746Z,11.64
2017-11-24T09:26:33.386Z,11.62
2017-11-24T09:27:36.058Z,11.61
2017-11-24T09:28:38.722Z,11.61
2017-11-24T09:29:41.681Z,11.62
2017-11-24T09:30:44.352Z,11.59
2017-11-24T09:31:47.611Z,11.51
2017-11-24T09:32:50.258Z,11.47
2017-11-24T09:33:53.347Z,11.41
2017-11-24T09:34:56.020Z,11.42
2017-11-24T09:35:59.222Z,11.38
2017-11-24T09:37:02.646Z,11.37
2017-11-24T09:38:05.445Z,11.34
2017-11-24T09:39:08.115Z,11.33
2017-11-24T09:40:10.770Z,11.34
2017-11-24T09:41:13.583Z,11.30
2017-11-24T09:42:16.605Z,11.32
2017-11-24T09:43:19.305Z,11.27
2017-11-24T09:44:21.907Z,11.24
2017-11-24T09:45:24.513Z,11.21
2017-11-24T09:46:27.260Z,11.17
2017-11-24T09:47:29.874Z,11.12
2017-11-24T09:48:32.781Z,10.98
2017-11-24T09:49:35.400Z,10.93
2017-11-24T09:50:38.056Z,10.80
2017-11-24T09:51:40.749Z,10.66
2017-11-24T09:52:43.392Z,10.55
2017-11-24T09:53:46.077Z,10.47
2017-11-24T09:54:49.053Z,10.47
2017-11-24T09:55:51.830Z,10.46
2017-11-24T09:56:54.510Z,10.40
2017-11-24T09:57:57.257Z,10.39
2017-11-24T09:58:59.939Z,10.33
2017-11-24T10:00:02.692Z,10.32
2017-11-24T10:01:05.625Z,10.26
2017-11-24T10:02:08.301Z,10.23
2017-11-24T10:03:11.725Z,10.20
2017-11-24T10:04:14.404Z,10.12
2017-11-24T10:05:17.103Z,10.02
2017-11-24T10:06:19.727Z,9.94
2017-11-24T10:07:22.661Z,9.84
2017-11-24T10:08:25.386Z,9.84
2017-11-24T10:09:28.415Z,9.76
2017-11-24T10:10:31.057Z,9.76
2017-11-24T10:11:33.824Z,9.74
2017-11-24T10:12:36.464Z,9.71
2017-11-24T10:13:39.416Z,9.70
2017-11-24T10:14:42.115Z,9.70
2017-11-24T10:15:45.066Z,9.56
2017-11-24T10:16:47.735Z,9.61
2017-11-24T10:17:50.430Z,9.61
2017-11-24T10:18:53.067Z,9.57
2017-11-24T10:19:56.322Z,9.55
2017-11-24T10:21:03.031Z,9.59
2017-11-24T10:23:07.849Z,9.54
2017-11-24T10:24:10.542Z,9.53
2017-11-24T10:25:13.261Z,9.47
2017-11-24T10:26:16.256Z,9.47
2017-11-24T10:27:18.896Z,9.51
2017-11-24T10:28:21.646Z,9.46
2017-11-24T10:29:24.359Z,9.52
2017-11-24T10:30:27.023Z,9.50
2017-11-24T10:31:29.631Z,9.45
2017-11-24T10:32:32.875Z,9.49
2017-11-24T10:33:35.699Z,9.54
2017-11-24T10:34:38.346Z,9.55
2017-11-24T10:35:41.663Z,9.55
2017-11-24T10:36:44.366Z,9.56
2017-11-24T10:37:47.290Z,9.53
2017-11-24T10:38:50.255Z,9.56
2017-11-24T10:39:53.423Z,9.55
2017-11-24T10:40:56.540Z,9.57
2017-11-24T10:41:59.708Z,9.55
2017-11-24T10:43:02.450Z,9.48
2017-11-24T10:44:05.215Z,9.51
2017-11-24T10:45:08.252Z,9.51
2017-11-24T10:46:10.970Z,9.51
2017-11-24T10:47:13.678Z,9.44
2017-11-24T10:48:16.355Z,9.44
2017-11-24T10:49:19.095Z,9.42
2017-11-24T10:50:21.873Z,9.42
2017-11-24T10:55:05.806Z,9.36
2017-11-24T10:56:08.416Z,9.35
2017-11-24T10:57:11.102Z,9.28
2017-11-24T10:58:13.756Z,9.30
2017-11-24T10:59:16.445Z,9.29
2017-11-24T11:15:33.823Z,9.19
2017-11-24T11:16:36.636Z,9.21
2017-11-24T11:17:39.203Z,9.23
2017-11-24T11:18:41.740Z,9.21
2017-11-24T11:19:44.320Z,9.07
2017-11-24T11:20:47.484Z,9.13
2017-11-24T11:21:50.181Z,9.11
2017-11-24T11:22:52.849Z,9.12
2017-11-24T11:23:55.665Z,9.13
2017-11-24T11:24:58.643Z,9.20
2017-11-24T11:26:01.363Z,9.15
2017-11-24T11:27:04.289Z,9.15
2017-11-24T11:28:06.942Z,9.14
2017-11-24T11:29:09.728Z,9.12
2017-11-24T11:30:12.558Z,9.08
2017-11-24T11:31:15.520Z,9.13
2017-11-24T11:32:18.165Z,9.06
2017-11-24T11:33:21.106Z,9.12
2017-11-24T11:34:23.873Z,9.08
2017-11-24T11:35:26.976Z,9.10
2017-11-24T11:36:29.665Z,8.94
2017-11-24T11:37:32.384Z,8.98
2017-11-24T11:38:35.039Z,9.02
2017-11-24T11:39:38.106Z,9.01
2017-11-24T11:40:40.710Z,9.02
2017-11-24T11:41:43.396Z,9.01
2017-11-24T11:42:46.139Z,9.07
2017-11-24T11:43:48.817Z,9.05
2017-11-24T11:44:51.469Z,9.08
2017-11-24T11:45:54.517Z,9.15
2017-11-24T11:46:57.154Z,9.14
2017-11-24T11:47:59.950Z,9.17
2017-11-24T11:49:02.886Z,9.11
2017-11-24T11:50:05.818Z,9.10
2017-11-24T11:51:08.450Z,9.10
2017-11-24T11:52:11.564Z,9.09
2017-11-24T11:53:14.662Z,9.06
2017-11-24T11:54:21.667Z,9.09
2017-11-24T11:55:24.975Z,9.07
2017-11-24T11:56:27.609Z,9.04
2017-11-24T11:57:30.248Z,9.02
2017-11-24T11:58:33.288Z,9.00
2017-11-24T11:59:35.940Z,8.99
2017-11-24T12:00:38.628Z,8.98
2017-11-24T12:01:41.311Z,8.97
2017-11-24T12:02:44.096Z,9.01
2017-11-24T12:03:46.773Z,8.99
2017-11-24T12:04:49.948Z,8.94
2017-11-24T12:05:52.529Z,8.96
2017-11-24T12:06:55.178Z,9.03
2017-11-24T12:07:57.876Z,9.05
2017-11-24T12:09:00.544Z,9.02
2017-11-24T12:10:03.436Z,9.11
2017-11-24T12:11:06.498Z,9.12
2017-11-24T12:12:09.233Z,9.13
2017-11-24T12:13:11.903Z,9.19
2017-11-24T12:14:14.555Z,9.15
2017-11-24T12:15:17.224Z,9.21
2017-11-24T12:16:19.936Z,9.22
2017-11-24T12:17:22.978Z,9.23
2017-11-24T12:18:25.585Z,9.25
2017-11-24T12:19:28.258Z,9.16
2017-11-24T12:20:31.024Z,9.11
2017-11-24T12:21:33.678Z,9.16
2017-11-24T12:22:36.353Z,9.17
2017-11-24T12:23:39.298Z,9.13
2017-11-24T12:24:41.946Z,9.07
2017-11-24T12:25:44.605Z,9.12
2017-11-24T12:26:47.288Z,9.11
2017-11-24T12:27:49.911Z,9.07
2017-11-24T12:28:52.569Z,9.06
2017-11-24T12:29:55.645Z,9.05
2017-11-24T12:30:58.336Z,9.03
2017-11-24T12:32:01.025Z,9.01
2017-11-24T12:33:03.712Z,9.03
2017-11-24T12:34:06.461Z,8.99
2017-11-24T12:35:09.163Z,8.99
2017-11-24T12:36:12.228Z,8.97
2017-11-24T12:37:14.890Z,8.96
2017-11-24T12:38:17.541Z,9.00
2017-11-24T12:39:20.210Z,9.02
2017-11-24T12:40:22.917Z,8.90
2017-11-24T12:41:25.565Z,8.95
2017-11-24T12:42:28.733Z,8.96
2017-11-24T12:43:31.471Z,8.94
2017-11-24T12:44:34.493Z,8.92
2017-11-24T12:45:37.319Z,8.83
2017-11-24T12:46:40.098Z,8.76
2017-11-24T12:47:42.815Z,8.76
2017-11-24T12:48:46.065Z,8.84
2017-11-24T12:49:48.721Z,8.82
2017-11-24T12:50:51.436Z,8.83
2017-11-24T12:51:54.744Z,8.83
2017-11-24T12:52:57.436Z,8.75
2017-11-24T12:54:00.190Z,8.81
2017-11-24T12:55:03.335Z,8.88
2017-11-24T12:56:06.229Z,8.89
2017-11-24T12:57:08.863Z,8.75
2017-11-24T12:58:11.510Z,8.75
2017-11-24T12:59:14.295Z,8.74
2017-11-24T13:00:17.023Z,8.79
2017-11-24T13:01:20.168Z,8.77
2017-11-24T13:02:22.990Z,8.68
2017-11-24T13:03:25.677Z,8.70
2017-11-24T13:04:28.558Z,8.70
2017-11-24T13:05:31.217Z,8.66
2017-11-24T13:06:33.933Z,8.66
2017-11-24T13:07:36.960Z,8.70
2017-11-24T13:08:39.683Z,8.67
2017-11-24T13:09:42.441Z,8.63
2017-11-24T13:10:45.122Z,8.64
2017-11-24T13:11:47.751Z,8.64
2017-11-24T13:12:50.477Z,8.58
2017-11-24T13:13:53.526Z,8.66
2017-11-24T13:14:56.328Z,8.59
2017-11-24T13:15:58.988Z,8.54
2017-11-24T13:17:01.712Z,8.48
2017-11-24T13:18:04.386Z,8.41
2017-11-24T13:19:07.042Z,8.50
2017-11-24T13:20:10.236Z,8.37
2017-11-24T13:21:12.965Z,8.38
2017-11-24T13:22:15.668Z,8.37
2017-11-24T13:23:18.363Z,8.29
2017-11-24T13:24:21.007Z,8.29
2017-11-24T13:25:23.719Z,8.27
2017-11-24T13:26:26.680Z,8.31
2017-11-24T13:27:29.326Z,8.34
2017-11-24T13:28:32.121Z,8.31
2017-11-24T13:29:34.850Z,8.23
2017-11-24T13:30:38.002Z,8.25
2017-11-24T13:31:40.746Z,8.32
2017-11-24T13:32:43.362Z,8.29
2017-11-24T13:33:47.086Z,8.30
2017-11-24T13:34:49.858Z,8.22
2017-11-24T13:35:52.526Z,8.17
2017-11-24T13:36:55.375Z,8.19
2017-11-24T13:37:58.558Z,8.17
2017-11-24T13:39:01.290Z,8.15
2017-11-24T13:40:03.929Z,8.22
2017-11-24T13:41:06.596Z,8.15
2017-11-24T13:42:09.273Z,8.07
2017-11-24T13:43:11.924Z,8.10
2017-11-24T13:44:15.074Z,8.04
2017-11-24T13:45:17.878Z,8.02
2017-11-24T13:46:20.621Z,8.05
2017-11-24T13:47:23.256Z,7.97
2017-11-24T13:48:25.887Z,8.04
2017-11-24T13:49:28.539Z,8.00
2017-11-24T13:50:31.376Z,7.98
2017-11-24T13:51:34.049Z,8.00
2017-11-24T13:52:36.629Z,8.03
2017-11-24T13:53:39.360Z,8.07
2017-11-24T13:54:42.104Z,8.06
2017-11-24T13:55:44.791Z,8.08
2017-11-24T13:56:47.886Z,8.10
2017-11-24T13:57:50.614Z,8.03
2017-11-24T13:58:53.321Z,8.03
2017-11-24T13:59:55.961Z,8.06
2017-11-24T14:00:58.566Z,8.07
2017-11-24T14:02:01.248Z,8.09
2017-11-24T14:03:04.357Z,8.09
2017-11-24T14:04:07.092Z,8.09
2017-11-24T14:05:09.959Z,8.13
2017-11-24T14:06:12.843Z,8.12
2017-11-24T14:07:15.493Z,8.13
2017-11-24T14:08:18.194Z,8.11
2017-11-24T14:09:21.224Z,8.13
2017-11-24T14:10:24.005Z,8.08
2017-11-24T14:11:27.033Z,8.04
2017-11-24T14:12:29.945Z,8.09
2017-11-24T14:13:32.776Z,8.11
2017-11-24T14:14:35.615Z,7.94
2017-11-24T14:15:38.550Z,8.00
2017-11-24T14:16:41.336Z,7.87
2017-11-24T14:17:44.082Z,7.86
2017-11-24T14:18:46.965Z,7.90